Time;durP1;ratioP1;P1;durP2;ratioP2;P2;SDS_P1;SDS_P2;PMS_P1;PMS_P2;Temp;Humidity;BMP_temperature;BMP_pressure;BME280_temperature;BME280_humidity;BME280_pressure;Samples;Min_cycle;Max_cycle;Signal;HPM_P1;HPM_P2
2023/03/11 00:01:56;;;;;;;9.80;1.65;;;;;;;;;;5012120;28;20050;-61
2023/03/11 00:04:26;;;;;;;6.90;1.35;;;;;;;;;;5012496;28;20077;-61
2023/03/11 00:06:55;;;;;;;2.97;1.05;;;;;;;;;;5011817;28;20046;-61
2023/03/11 00:09:27;;;;;;;5.60;1.23;;;;;;;;;;4963546;28;20556;-62
2023/03/11 00:12:00;;;;;;;4.80;1.38;;;;;;;;;;4979460;28;20399;-63
2023/03/11 00:14:30;;;;;;;7.90;1.80;;;;;;;;;;5028475;28;20046;-61
2023/03/11 00:17:00;;;;;;;6.05;1.75;;;;;;;;;;5011846;28;20402;-61
2023/03/11 00:19:29;;;;;;;5.78;1.40;;;;;;;;;;4995670;28;20529;-61
2023/03/11 00:22:01;;;;;;;5.22;1.50;;;;;;;;;;4995317;28;20058;-63
2023/03/11 00:24:31;;;;;;;3.47;1.15;;;;;;;;;;4979218;28;20062;-61
2023/03/11 00:27:01;;;;;;;4.30;1.35;;;;;;;;;;4995123;28;20057;-62
2023/03/11 00:29:31;;;;;;;6.82;1.55;;;;;;;;;;5031649;28;20050;-61
2023/03/11 00:32:01;;;;;;;10.02;1.50;;;;;;;;;;5031473;28;20054;-61
2023/03/11 00:34:31;;;;;;;6.63;1.60;;;;;;;;;;5050697;28;20155;-64
2023/03/11 00:37:01;;;;;;;6.50;1.42;;;;;;;;;;5071956;28;20495;-63
2023/03/11 00:39:31;;;;;;;4.55;1.67;;;;;;;;;;5051393;28;20045;-62
2023/03/11 00:42:02;;;;;;;5.57;1.60;;;;;;;;;;5034551;28;20049;-63
2023/03/11 00:44:32;;;;;;;3.42;1.38;;;;;;;;;;5050893;28;20049;-61
2023/03/11 00:47:02;;;;;;;4.65;1.70;;;;;;;;;;5050905;28;20065;-62
2023/03/11 00:49:32;;;;;;;4.78;1.63;;;;;;;;;;5031069;28;20125;-62
2023/03/11 00:52:02;;;;;;;6.40;1.33;;;;;;;;;;5031060;28;20548;-62
2023/03/11 00:54:32;;;;;;;6.50;1.45;;;;;;;;;;5031084;28;20057;-63
2023/03/11 00:57:02;;;;;;;5.35;1.42;;;;;;;;;;5030811;28;20056;-63
2023/03/11 00:59:34;;;;;;;7.60;1.75;;;;;;;;;;5030846;28;20054;-63
2023/03/11 01:02:04;;;;;;;5.82;1.60;;;;;;;;;;5030938;28;20064;-62
2023/03/11 01:04:34;;;;;;;6.63;1.80;;;;;;;;;;5050449;28;20156;-61
2023/03/11 01:07:04;;;;;;;4.85;1.33;;;;;;;;;;5032085;28;20449;-62
2023/03/11 01:09:34;;;;;;;4.90;1.40;;;;;;;;;;4994732;28;20422;-62
2023/03/11 01:12:05;;;;;;;5.97;1.77;;;;;;;;;;5011112;28;20058;-61
2023/03/11 01:14:37;;;;;;;10.25;1.60;;;;;;;;;;5011004;28;20525;-61
2023/03/11 01:17:09;;;;;;;6.00;1.63;;;;;;;;;;4971785;28;20054;-62
2023/03/11 01:19:39;;;;;;;7.63;2.20;;;;;;;;;;5030827;28;20076;-62
2023/03/11 01:22:09;;;;;;;7.35;2.17;;;;;;;;;;5030649;28;20523;-62
2023/03/11 01:24:39;;;;;;;9.35;1.77;;;;;;;;;;4971086;28;20055;-63
2023/03/11 01:27:09;;;;;;;10.20;1.90;;;;;;;;;;4971718;28;20062;-61
2023/03/11 01:29:39;;;;;;;7.85;1.60;;;;;;;;;;4971367;28;20055;-63
2023/03/11 01:32:10;;;;;;;6.57;1.73;;;;;;;;;;4939519;28;20078;-61
2023/03/11 01:34:40;;;;;;;6.57;1.73;;;;;;;;;;4971345;28;20058;-61
2023/03/11 01:37:09;;;;;;;9.40;2.30;;;;;;;;;;4971588;28;20042;-61
2023/03/11 01:39:39;;;;;;;5.78;1.58;;;;;;;;;;4971156;28;20065;-62
2023/03/11 01:42:09;;;;;;;4.60;1.60;;;;;;;;;;4971464;28;20054;-62
2023/03/11 01:44:39;;;;;;;5.20;1.50;;;;;;;;;;4986646;28;20047;-61
2023/03/11 01:47:11;;;;;;;5.05;1.85;;;;;;;;;;4980984;28;20055;-61
2023/03/11 01:49:41;;;;;;;7.07;1.92;;;;;;;;;;4971100;28;20050;-62
2023/03/11 01:52:11;;;;;;;6.47;2.10;;;;;;;;;;4971551;28;20070;-61
2023/03/11 01:54:47;;;;;;;6.30;2.03;;;;;;;;;;4954482;28;20047;-62
2023/03/11 01:57:21;;;;;;;7.28;2.25;;;;;;;;;;4990460;28;20065;-62
2023/03/11 01:59:55;;;;;;;7.40;2.10;;;;;;;;;;5005770;28;20127;-64
2023/03/11 02:02:35;;;;;;;5.47;2.30;;;;;;;;;;4989929;28;20168;-62
2023/03/11 02:05:05;;;;;;;5.90;2.22;;;;;;;;;;4990014;28;20065;-63
2023/03/11 02:07:39;;;;;;;5.78;1.98;;;;;;;;;;4990335;28;20058;-62
2023/03/11 02:10:13;;;;;;;9.15;2.63;;;;;;;;;;4958407;28;20050;-63
2023/03/11 02:12:44;;;;;;;12.60;2.92;;;;;;;;;;4941628;28;20076;-63
2023/03/11 02:15:24;;;;;;;7.65;2.45;;;;;;;;;;4959955;28;20059;-63
2023/03/11 02:17:55;;;;;;;10.15;2.92;;;;;;;;;;4989769;28;20050;-64
2023/03/11 02:21:02;;;;;;;10.57;3.08;;;;;;;;;;4989616;28;20621;-62
2023/03/11 02:23:57;;;;;;;7.55;2.60;;;;;;;;;;4989629;28;20065;-63
2023/03/11 02:26:32;;;;;;;8.85;2.70;;;;;;;;;;4970039;28;20050;-62
2023/03/11 02:29:05;;;;;;;5.80;2.83;;;;;;;;;;4951202;29;20055;-62
2023/03/11 02:31:38;;;;;;;4.70;2.60;;;;;;;;;;4951533;28;20048;-62
2023/03/11 02:34:20;;;;;;;7.40;2.20;;;;;;;;;;4950883;28;20055;-65
2023/03/11 02:36:53;;;;;;;8.57;1.95;;;;;;;;;;4969903;28;20047;-64
2023/03/11 02:39:35;;;;;;;5.55;1.95;;;;;;;;;;4966373;28;20705;-63
2023/03/11 02:42:12;;;;;;;5.57;2.00;;;;;;;;;;4950656;29;20160;-63
2023/03/11 02:44:45;;;;;;;4.75;1.70;;;;;;;;;;4947035;29;20462;-63
2023/03/11 02:47:16;;;;;;;7.68;2.00;;;;;;;;;;4955504;28;20388;-63
2023/03/11 02:49:47;;;;;;;9.50;1.92;;;;;;;;;;5008838;28;20098;-62
2023/03/11 02:52:17;;;;;;;10.13;1.70;;;;;;;;;;4992687;28;20065;-65
2023/03/11 02:54:47;;;;;;;6.45;2.10;;;;;;;;;;5005629;28;20058;-64
2023/03/11 02:57:16;;;;;;;6.07;1.95;;;;;;;;;;4931431;29;20046;-62
2023/03/11 02:59:46;;;;;;;5.82;2.13;;;;;;;;;;4950398;29;20066;-63
2023/03/11 03:02:16;;;;;;;9.38;1.92;;;;;;;;;;4950270;29;20495;-63
2023/03/11 03:04:47;;;;;;;8.15;2.03;;;;;;;;;;4955543;28;20104;-62
2023/03/11 03:07:17;;;;;;;8.50;2.00;;;;;;;;;;4943651;29;20059;-62
2023/03/11 03:09:47;;;;;;;8.48;2.38;;;;;;;;;;4925983;29;20067;-62
2023/03/11 03:12:17;;;;;;;7.93;2.20;;;;;;;;;;4931466;29;20066;-62
2023/03/11 03:14:47;;;;;;;9.35;2.55;;;;;;;;;;4911605;29;20052;-62
2023/03/11 03:17:18;;;;;;;5.90;2.15;;;;;;;;;;4874631;29;20053;-63
2023/03/11 03:19:48;;;;;;;3.50;2.05;;;;;;;;;;4884647;29;20060;-62
2023/03/11 03:22:18;;;;;;;6.80;2.10;;;;;;;;;;4912085;29;20076;-62
2023/03/11 03:24:49;;;;;;;6.43;2.53;;;;;;;;;;4896075;29;20056;-62
2023/03/11 03:27:19;;;;;;;5.90;2.30;;;;;;;;;;4897137;29;20056;-63
2023/03/11 03:29:51;;;;;;;6.60;2.08;;;;;;;;;;4897340;29;20048;-63
2023/03/11 03:32:22;;;;;;;8.52;2.53;;;;;;;;;;4878142;29;20619;-64
2023/03/11 03:34:57;;;;;;;8.20;1.92;;;;;;;;;;4867034;29;20057;-62
2023/03/11 03:37:43;;;;;;;7.00;2.38;;;;;;;;;;4904413;29;20578;-63
2023/03/11 03:40:13;;;;;;;6.53;2.15;;;;;;;;;;4897124;29;20067;-63
2023/03/11 03:42:46;;;;;;;6.20;1.98;;;;;;;;;;4935125;29;20567;-64
2023/03/11 03:45:17;;;;;;;5.95;2.20;;;;;;;;;;4910257;29;20052;-64
2023/03/11 03:47:50;;;;;;;9.43;1.85;;;;;;;;;;4953523;29;20059;-62
2023/03/11 03:50:22;;;;;;;10.05;1.80;;;;;;;;;;4934489;29;20508;-63
2023/03/11 03:52:55;;;;;;;5.00;2.17;;;;;;;;;;4909417;29;20500;-63
2023/03/11 03:55:26;;;;;;;7.53;2.13;;;;;;;;;;4973187;28;20090;-62
2023/03/11 03:57:57;;;;;;;4.00;1.40;;;;;;;;;;4972574;28;20062;-63
2023/03/11 04:00:33;;;;;;;4.15;1.30;;;;;;;;;;4919840;29;20488;-71
2023/03/11 04:03:03;;;;;;;7.50;2.10;;;;;;;;;;4939485;28;20070;-63
2023/03/11 04:05:44;;;;;;;5.45;1.45;;;;;;;;;;4915299;29;20052;-63
2023/03/11 04:08:14;;;;;;;3.08;1.48;;;;;;;;;;4930073;29;20074;-63
2023/03/11 04:10:44;;;;;;;17.10;1.73;;;;;;;;;;4863135;29;20200;-63
2023/03/11 04:13:14;;;;;;;4.45;1.83;;;;;;;;;;4896261;29;20529;-63
2023/03/11 04:15:45;;;;;;;8.85;1.67;;;;;;;;;;4862003;29;20406;-63
2023/03/11 04:18:15;;;;;;;6.95;2.00;;;;;;;;;;4877523;29;20064;-62
2023/03/11 04:20:45;;;;;;;5.25;1.95;;;;;;;;;;4854682;29;20050;-62
2023/03/11 04:23:15;;;;;;;5.40;2.20;;;;;;;;;;4840258;29;20061;-62
2023/03/11 04:25:45;;;;;;;7.63;2.00;;;;;;;;;;4847773;29;20054;-62
2023/03/11 04:28:16;;;;;;;6.93;2.00;;;;;;;;;;4814157;29;20073;-63
2023/03/11 04:30:46;;;;;;;7.38;2.00;;;;;;;;;;4809818;29;20089;-65
2023/03/11 04:33:16;;;;;;;5.57;1.85;;;;;;;;;;4823102;29;20050;-64
2023/03/11 04:35:46;;;;;;;8.43;1.90;;;;;;;;;;4826942;29;20062;-63
2023/03/11 04:38:18;;;;;;;12.32;2.50;;;;;;;;;;4821700;29;20057;-66
2023/03/11 04:40:49;;;;;;;9.98;2.15;;;;;;;;;;4858108;29;20069;-62
2023/03/11 04:43:19;;;;;;;8.95;2.08;;;;;;;;;;4895829;29;20052;-64
2023/03/11 04:45:50;;;;;;;4.10;1.63;;;;;;;;;;4898807;29;20064;-63
2023/03/11 04:48:21;;;;;;;;;;;;;;;;;;4915214;29;20091;-62
2023/03/11 04:50:51;;;;;;;5.30;2.00;;;;;;;;;;4929815;29;20442;-62
2023/03/11 04:53:21;;;;;;;7.93;2.00;;;;;;;;;;4892231;29;20055;-62
2023/03/11 04:55:52;;;;;;;2.70;1.65;;;;;;;;;;4886680;29;20049;-65
2023/03/11 04:58:22;;;;;;;4.78;1.77;;;;;;;;;;4877353;29;20065;-62
2023/03/11 05:00:53;;;;;;;7.57;1.63;;;;;;;;;;4877009;29;20075;-62
2023/03/11 05:03:23;;;;;;;6.97;1.40;;;;;;;;;;4880629;29;20156;-63
2023/03/11 05:05:55;;;;;;;6.78;1.48;;;;;;;;;;4895506;29;20060;-63
2023/03/11 05:08:25;;;;;;;6.53;1.60;;;;;;;;;;4895729;29;20068;-61
2023/03/11 05:10:55;;;;;;;3.10;1.50;;;;;;;;;;4905085;29;20064;-62
2023/03/11 05:13:25;;;;;;;5.18;1.20;;;;;;;;;;4895739;29;20060;-63
2023/03/11 05:15:57;;;;;;;5.80;1.30;;;;;;;;;;4891853;29;20064;-61
2023/03/11 05:18:29;;;;;;;4.28;1.23;;;;;;;;;;4842623;29;20046;-62
2023/03/11 05:20:59;;;;;;;;;;;;;;;;;;4840025;29;20061;-61
2023/03/11 05:23:32;;;;;;;5.07;1.20;;;;;;;;;;4860130;29;19925;-62
2023/03/11 05:26:02;;;;;;;7.57;1.30;;;;;;;;;;4858069;29;20060;-61
2023/03/11 05:28:33;;;;;;;6.32;1.40;;;;;;;;;;4875982;29;20056;-62
2023/03/11 05:31:11;;;;;;;5.00;1.40;;;;;;;;;;4913935;29;20063;-62
2023/03/11 05:33:41;;;;;;;3.38;1.33;;;;;;;;;;4892976;29;20047;-62
2023/03/11 05:36:13;;;;;;;;;;;;;;;;;;4933049;29;20095;-61
2023/03/11 05:38:45;;;;;;;4.25;1.42;;;;;;;;;;4932544;29;20268;-65
2023/03/11 05:41:15;;;;;;;2.83;1.27;;;;;;;;;;4900946;29;20055;-63
2023/03/11 05:43:46;;;;;;;5.15;1.30;;;;;;;;;;4902759;29;20056;-62
2023/03/11 05:46:19;;;;;;;4.07;1.30;;;;;;;;;;4931601;29;20059;-61
2023/03/11 05:48:49;;;;;;;7.63;1.40;;;;;;;;;;4871007;29;20420;-61
2023/03/11 05:51:19;;;;;;;5.00;1.65;;;;;;;;;;4892721;29;20920;-62
2023/03/11 05:53:50;;;;;;;4.82;1.83;;;;;;;;;;4875964;29;20552;-61
2023/03/11 05:56:28;;;;;;;9.18;1.92;;;;;;;;;;4900890;29;20061;-62
2023/03/11 05:58:58;;;;;;;3.65;1.65;;;;;;;;;;4894328;29;20067;-62
2023/03/11 06:01:31;;;;;;;4.60;1.45;;;;;;;;;;4931808;29;20067;-62
2023/03/11 06:04:02;;;;;;;8.10;1.95;;;;;;;;;;4882874;29;20415;-61
2023/03/11 06:06:32;;;;;;;7.88;2.10;;;;;;;;;;4890107;29;20053;-61
2023/03/11 06:09:02;;;;;;;3.95;1.30;;;;;;;;;;4853302;29;20061;-61
2023/03/11 06:11:33;;;;;;;3.97;1.52;;;;;;;;;;4838983;29;20062;-61
2023/03/11 06:14:03;;;;;;;5.22;1.48;;;;;;;;;;4828913;29;20066;-61
2023/03/11 06:16:33;;;;;;;6.13;1.70;;;;;;;;;;4849159;29;20064;-61
2023/03/11 06:19:05;;;;;;;3.97;1.42;;;;;;;;;;4867262;29;20053;-62
2023/03/11 06:21:38;;;;;;;6.97;1.70;;;;;;;;;;4871360;29;20048;-61
2023/03/11 06:24:08;;;;;;;3.75;1.33;;;;;;;;;;4891817;29;20081;-62
2023/03/11 06:26:38;;;;;;;3.85;1.38;;;;;;;;;;4944553;28;20062;-62
2023/03/11 06:29:13;;;;;;;3.85;1.42;;;;;;;;;;4948148;29;20565;-61
2023/03/11 06:31:44;;;;;;;4.78;1.45;;;;;;;;;;4900512;29;20059;-62
2023/03/11 06:34:14;;;;;;;4.97;1.65;;;;;;;;;;4931518;29;20059;-61
2023/03/11 06:36:45;;;;;;;7.07;1.67;;;;;;;;;;4912632;29;20128;-63
2023/03/11 06:39:16;;;;;;;3.10;1.60;;;;;;;;;;4902512;29;20053;-62
2023/03/11 06:41:48;;;;;;;5.75;1.40;;;;;;;;;;4873555;29;20061;-63
2023/03/11 06:44:19;;;;;;;6.70;1.30;;;;;;;;;;4874868;29;20081;-65
2023/03/11 06:46:48;;;;;;;5.13;1.40;;;;;;;;;;4865370;29;20059;-63
2023/03/11 06:49:18;;;;;;;4.80;1.40;;;;;;;;;;4931532;29;20571;-64
2023/03/11 06:51:49;;;;;;;8.93;1.60;;;;;;;;;;4896805;29;20052;-63
2023/03/11 06:54:19;;;;;;;8.07;1.60;;;;;;;;;;4911387;29;20467;-63
2023/03/11 06:56:49;;;;;;;2.95;1.30;;;;;;;;;;4883901;29;20509;-62
2023/03/11 06:59:21;;;;;;;6.88;1.40;;;;;;;;;;4853128;29;20060;-63
2023/03/11 07:01:52;;;;;;;5.00;1.35;;;;;;;;;;4893342;29;20421;-65
2023/03/11 07:04:23;;;;;;;6.05;1.35;;;;;;;;;;4867430;29;20050;-66
2023/03/11 07:06:53;;;;;;;3.63;1.33;;;;;;;;;;4903134;29;20400;-62
2023/03/11 07:09:24;;;;;;;6.00;1.65;;;;;;;;;;4872768;29;20049;-62
2023/03/11 07:11:54;;;;;;;10.20;2.10;;;;;;;;;;4843863;29;20057;-63
2023/03/11 07:14:30;;;;;;;8.35;2.13;;;;;;;;;;4891947;29;20481;-65
2023/03/11 07:17:00;;;;;;;7.15;2.15;;;;;;;;;;4895792;29;20061;-62
2023/03/11 07:19:39;;;;;;;6.93;1.90;;;;;;;;;;4918479;29;20413;-62
2023/03/11 07:22:09;;;;;;;7.43;1.50;;;;;;;;;;4884035;29;20063;-62
2023/03/11 07:24:39;;;;;;;5.85;1.40;;;;;;;;;;4904575;29;20056;-63
2023/03/11 07:27:08;;;;;;;7.07;1.63;;;;;;;;;;4923331;29;20409;-62
2023/03/11 07:29:38;;;;;;;3.50;1.85;;;;;;;;;;4915948;29;20133;-62
2023/03/11 07:32:08;;;;;;;5.30;1.70;;;;;;;;;;4929115;29;20047;-63
2023/03/11 07:34:39;;;;;;;6.63;1.40;;;;;;;;;;4923185;29;20071;-63
2023/03/11 07:37:09;;;;;;;3.22;1.58;;;;;;;;;;4889235;29;20056;-63
2023/03/11 07:39:39;;;;;;;8.52;1.30;;;;;;;;;;4912404;29;20080;-62
2023/03/11 07:42:09;;;;;;;4.63;1.45;;;;;;;;;;4933276;29;20081;-63
2023/03/11 07:44:39;;;;;;;4.43;1.40;;;;;;;;;;4948549;28;20063;-62
2023/03/11 07:47:09;;;;;;;4.88;1.35;;;;;;;;;;4920855;29;20063;-62
2023/03/11 07:49:39;;;;;;;4.15;1.52;;;;;;;;;;4932323;28;20432;-62
2023/03/11 07:52:09;;;;;;;6.35;1.63;;;;;;;;;;5008688;28;20102;-62
2023/03/11 07:54:39;;;;;;;3.00;1.20;;;;;;;;;;5028584;28;20066;-62
2023/03/11 07:57:15;;;;;;;5.97;1.92;;;;;;;;;;5008715;28;20054;-62
2023/03/11 07:59:45;;;;;;;5.10;1.73;;;;;;;;;;5008682;28;20161;-62
2023/03/11 08:02:15;;;;;;;6.20;1.73;;;;;;;;;;4992553;28;20157;-62
2023/03/11 08:04:45;;;;;;;7.18;1.77;;;;;;;;;;5008634;28;20057;-62
2023/03/11 08:07:15;;;;;;;5.70;1.80;;;;;;;;;;4992573;28;20050;-63
2023/03/11 08:09:44;;;;;;;6.28;2.13;;;;;;;;;;5011036;28;20110;-63
2023/03/11 08:12:15;;;;;;;12.27;2.00;;;;;;;;;;5032086;28;20129;-62
2023/03/11 08:14:45;;;;;;;9.18;1.75;;;;;;;;;;5015468;28;20065;-62
2023/03/11 08:17:15;;;;;;;4.50;2.00;;;;;;;;;;5015229;28;20523;-61
2023/03/11 08:19:45;;;;;;;6.38;2.22;;;;;;;;;;5031767;28;20417;-63
2023/03/11 08:22:14;;;;;;;7.70;1.90;;;;;;;;;;4983689;28;20517;-62
2023/03/11 08:24:44;;;;;;;5.40;1.50;;;;;;;;;;5011760;28;20069;-62
2023/03/11 08:27:14;;;;;;;5.93;1.45;;;;;;;;;;5002467;28;20069;-62
2023/03/11 08:29:44;;;;;;;9.48;1.92;;;;;;;;;;4968996;28;20059;-64
2023/03/11 08:32:14;;;;;;;6.75;1.50;;;;;;;;;;4953781;28;20059;-62
2023/03/11 08:34:43;;;;;;;9.52;1.65;;;;;;;;;;4959051;28;20046;-62
2023/03/11 08:37:13;;;;;;;6.30;1.60;;;;;;;;;;4991856;28;20046;-62
2023/03/11 08:39:43;;;;;;;7.18;1.70;;;;;;;;;;4992339;28;20058;-62
2023/03/11 08:42:13;;;;;;;7.50;1.80;;;;;;;;;;4991923;28;20518;-64
2023/03/11 08:44:43;;;;;;;7.75;1.35;;;;;;;;;;5000749;28;20069;-63
2023/03/11 08:47:13;;;;;;;3.92;1.73;;;;;;;;;;5011360;28;20065;-62
2023/03/11 08:49:43;;;;;;;8.13;1.63;;;;;;;;;;5011673;28;20058;-62
2023/03/11 08:52:12;;;;;;;6.75;1.60;;;;;;;;;;4978757;28;20072;-62
2023/03/11 08:54:42;;;;;;;7.57;1.50;;;;;;;;;;4995365;28;20058;-63
2023/03/11 08:57:12;;;;;;;6.38;1.67;;;;;;;;;;4995239;28;20163;-63
2023/03/11 08:59:42;;;;;;;5.75;2.13;;;;;;;;;;4978377;28;20072;-62
2023/03/11 09:02:11;;;;;;;5.07;1.67;;;;;;;;;;4962378;28;20064;-63
2023/03/11 09:04:41;;;;;;;5.60;1.50;;;;;;;;;;5011490;28;20425;-62
2023/03/11 09:07:12;;;;;;;6.50;1.63;;;;;;;;;;5020202;28;20056;-62
2023/03/11 09:09:42;;;;;;;4.80;1.70;;;;;;;;;;4997772;28;20405;-62
2023/03/11 09:12:12;;;;;;;6.80;1.85;;;;;;;;;;4982714;28;20532;-62
2023/03/11 09:14:43;;;;;;;6.03;1.70;;;;;;;;;;5030968;28;20057;-63
2023/03/11 09:17:13;;;;;;;9.32;1.70;;;;;;;;;;5030827;28;20066;-62
2023/03/11 09:19:43;;;;;;;4.30;1.40;;;;;;;;;;5030783;28;20041;-62
2023/03/11 09:22:13;;;;;;;7.22;1.73;;;;;;;;;;5030413;28;20509;-63
2023/03/11 09:24:43;;;;;;;4.75;1.50;;;;;;;;;;5030571;28;20057;-62
2023/03/11 09:27:14;;;;;;;6.95;2.60;;;;;;;;;;5030615;28;20061;-62
2023/03/11 09:29:44;;;;;;;5.80;1.40;;;;;;;;;;5014188;28;20050;-62
2023/03/11 09:32:15;;;;;;;4.22;1.70;;;;;;;;;;5030088;28;20493;-62
2023/03/11 09:34:44;;;;;;;6.03;1.45;;;;;;;;;;4981638;28;20517;-61
2023/03/11 09:37:14;;;;;;;5.78;1.42;;;;;;;;;;5030273;28;20519;-62
2023/03/11 09:39:44;;;;;;;4.47;1.60;;;;;;;;;;5030246;28;20072;-62
2023/03/11 09:42:32;;;;;;;7.25;2.15;;;;;;;;;;5030231;28;20081;-63
2023/03/11 09:45:12;;;;;;;6.65;1.77;;;;;;;;;;5030405;28;20042;-62
2023/03/11 09:48:06;;;;;;;6.18;2.17;;;;;;;;;;5056968;28;20056;-61
2023/03/11 09:50:47;;;;;;;3.70;1.52;;;;;;;;;;5032940;28;20392;-62
2023/03/11 09:53:37;;;;;;;4.40;1.80;;;;;;;;;;5030498;28;20501;-63
2023/03/11 09:56:12;;;;;;;6.05;1.75;;;;;;;;;;5030288;28;20397;-63
2023/03/11 09:58:54;;;;;;;10.93;1.50;;;;;;;;;;5032432;28;20041;-62
2023/03/11 10:01:44;;;;;;;4.35;1.58;;;;;;;;;;5032210;28;20417;-62
2023/03/11 10:04:22;;;;;;;6.50;1.90;;;;;;;;;;5032307;28;20086;-61
2023/03/11 10:06:53;;;;;;;4.85;1.80;;;;;;;;;;5032206;28;20046;-64
2023/03/11 10:09:47;;;;;;;8.30;2.22;;;;;;;;;;5029879;28;20049;-61
2023/03/11 10:13:04;;;;;;;11.30;2.28;;;;;;;;;;5032133;28;20053;-62
2023/03/11 10:15:59;;;;;;;14.48;3.88;;;;;;;;;;5010073;28;20632;-63
2023/03/11 10:18:53;;;;;;;3.95;1.60;;;;;;;;;;4994087;28;20979;-62
2023/03/11 10:21:52;;;;;;;5.03;1.95;;;;;;;;;;5009848;28;20053;-64
2023/03/11 10:24:36;;;;;;;12.55;4.50;;;;;;;;;;5009986;28;20382;-64
2023/03/11 10:27:34;;;;;;;11.43;5.72;;;;;;;;;;4993605;28;20061;-63
2023/03/11 10:30:23;;;;;;;10.82;4.75;;;;;;;;;;5015659;28;20062;-62
2023/03/11 10:33:09;;;;;;;8.23;3.10;;;;;;;;;;5029219;28;20532;-64
2023/03/11 10:35:43;;;;;;;10.25;2.28;;;;;;;;;;5029564;28;20065;-62
2023/03/11 10:38:30;;;;;;;10.38;2.97;;;;;;;;;;5029048;28;20053;-63
2023/03/11 10:41:31;;;;;;;8.77;2.80;;;;;;;;;;5029437;28;20638;-62
2023/03/11 10:44:14;;;;;;;4.68;2.72;;;;;;;;;;4970673;28;20063;-63
2023/03/11 10:46:44;;;;;;;12.02;2.75;;;;;;;;;;4970647;28;20598;-63
2023/03/11 10:49:16;;;;;;;10.40;3.17;;;;;;;;;;4970650;28;20094;-64
2023/03/11 10:51:49;;;;;;;7.55;3.15;;;;;;;;;;4954915;28;20149;-61
2023/03/11 10:54:44;;;;;;;7.57;3.15;;;;;;;;;;4970417;28;20547;-61
2023/03/11 10:57:31;;;;;;;13.48;2.33;;;;;;;;;;4989953;28;20062;-60
2023/03/11 11:00:16;;;;;;;8.65;2.67;;;;;;;;;;4989500;28;20050;-61
2023/03/11 11:02:56;;;;;;;9.88;2.42;;;;;;;;;;4957223;28;20507;-61
2023/03/11 11:05:31;;;;;;;8.82;3.03;;;;;;;;;;4989629;28;20054;-61
2023/03/11 11:08:16;;;;;;;6.65;3.00;;;;;;;;;;4957985;28;20549;-61
2023/03/11 11:10:51;;;;;;;7.70;2.47;;;;;;;;;;4989755;28;20470;-61
2023/03/11 11:13:24;;;;;;;6.90;2.60;;;;;;;;;;4989720;28;20038;-61
2023/03/11 11:16:17;;;;;;;5.32;2.30;;;;;;;;;;4989709;28;20058;-61
2023/03/11 11:19:02;;;;;;;6.00;2.20;;;;;;;;;;4973580;28;20058;-62
2023/03/11 11:21:39;;;;;;;6.85;2.10;;;;;;;;;;4996929;28;20060;-61
2023/03/11 11:24:29;;;;;;;11.40;2.35;;;;;;;;;;5048767;28;20521;-63
2023/03/11 11:27:13;;;;;;;4.43;2.38;;;;;;;;;;5016217;28;20492;-61
2023/03/11 11:29:47;;;;;;;3.47;1.10;;;;;;;;;;5032023;28;20045;-60
2023/03/11 11:32:28;;;;;;;4.32;1.60;;;;;;;;;;5048737;28;20056;-63
2023/03/11 11:35:12;;;;;;;4.07;1.23;;;;;;;;;;5048274;28;20052;-63
2023/03/11 11:37:54;;;;;;;3.85;2.58;;;;;;;;;;5028179;28;20053;-62
2023/03/11 11:40:32;;;;;;;5.70;2.10;;;;;;;;;;5040546;28;20048;-61
2023/03/11 11:43:29;;;;;;;2.90;1.73;;;;;;;;;;5011705;28;20578;-60
2023/03/11 11:46:05;;;;;;;5.53;1.70;;;;;;;;;;5018128;28;20059;-62
2023/03/11 11:48:37;;;;;;;4.28;1.35;;;;;;;;;;5001072;28;20564;-65
2023/03/11 11:51:34;;;;;;;15.63;5.75;;;;;;;;;;4998700;28;20390;-60
2023/03/11 11:54:57;;;;;;;17.35;6.78;;;;;;;;;;4997397;28;20108;-62
2023/03/11 11:57:27;;;;;;;4.35;2.08;;;;;;;;;;4928105;29;20052;-62
2023/03/11 11:59:57;;;;;;;30.35;13.35;;;;;;;;;;4887134;29;20044;-59
2023/03/11 12:02:45;;;;;;;23.73;10.35;;;;;;;;;;4937868;29;20545;-61
2023/03/11 12:05:34;;;;;;;6.13;1.85;;;;;;;;;;4906563;29;20429;-60
2023/03/11 12:08:25;;;;;;;4.22;2.47;;;;;;;;;;4953791;29;20055;-63
2023/03/11 12:11:08;;;;;;;22.10;10.40;;;;;;;;;;4917532;29;20055;-63
2023/03/11 12:14:00;;;;;;;3.35;1.30;;;;;;;;;;4918532;29;20566;-61
2023/03/11 12:16:53;;;;;;;2.75;1.17;;;;;;;;;;4953778;29;20527;-61
2023/03/11 12:19:29;;;;;;;9.40;2.80;;;;;;;;;;4968820;28;20055;-62
2023/03/11 12:22:04;;;;;;;4.43;1.35;;;;;;;;;;4921735;29;20569;-65
2023/03/11 12:24:43;;;;;;;5.20;1.80;;;;;;;;;;4952938;28;20043;-63
2023/03/11 12:27:24;;;;;;;3.55;1.58;;;;;;;;;;4915099;28;20112;-63
2023/03/11 12:30:05;;;;;;;4.15;1.50;;;;;;;;;;5003001;28;20084;-65
2023/03/11 12:32:51;;;;;;;3.08;1.45;;;;;;;;;;5045548;28;20072;-63
2023/03/11 12:35:26;;;;;;;2.58;1.45;;;;;;;;;;5046191;28;20060;-61
2023/03/11 12:38:19;;;;;;;2.58;1.40;;;;;;;;;;5045947;28;20108;-61
2023/03/11 12:41:06;;;;;;;2.65;1.42;;;;;;;;;;4970531;28;20059;-64
2023/03/11 12:43:36;;;;;;;3.60;1.70;;;;;;;;;;4965338;28;20066;-62
2023/03/11 12:46:07;;;;;;;3.42;1.67;;;;;;;;;;4967840;28;20490;-65
2023/03/11 12:48:44;;;;;;;3.58;1.40;;;;;;;;;;4970985;28;20067;-62
2023/03/11 12:51:26;;;;;;;1.88;1.20;;;;;;;;;;4983792;28;20066;-64
2023/03/11 12:53:56;;;;;;;2.50;1.30;;;;;;;;;;4967303;28;20047;-63
2023/03/11 12:56:44;;;;;;;5.88;1.25;;;;;;;;;;4965303;28;20055;-65
2023/03/11 12:59:34;;;;;;;3.50;1.60;;;;;;;;;;4965331;28;20074;-66
2023/03/11 13:02:23;;;;;;;2.45;1.30;;;;;;;;;;4966488;28;20062;-63
2023/03/11 13:04:59;;;;;;;2.78;1.30;;;;;;;;;;4965272;28;20067;-63
2023/03/11 13:07:50;;;;;;;3.45;1.40;;;;;;;;;;4961685;28;20522;-63
2023/03/11 13:10:38;;;;;;;3.65;1.77;;;;;;;;;;4961305;28;20054;-63
2023/03/11 13:13:32;;;;;;;2.20;1.30;;;;;;;;;;4968267;28;20078;-61
2023/03/11 13:16:14;;;;;;;2.90;1.33;;;;;;;;;;4952852;28;20047;-66
2023/03/11 13:18:50;;;;;;;3.25;1.23;;;;;;;;;;5012604;28;20061;-64
2023/03/11 13:21:31;;;;;;;4.03;1.73;;;;;;;;;;5035543;28;20068;-64
2023/03/11 13:24:30;;;;;;;4.10;1.30;;;;;;;;;;5021619;28;20050;-64
2023/03/11 13:27:05;;;;;;;2.17;1.40;;;;;;;;;;4967827;28;20078;-64
2023/03/11 13:29:59;;;;;;;3.40;1.00;;;;;;;;;;4966744;28;20078;-62
2023/03/11 13:32:34;;;;;;;1.77;1.30;;;;;;;;;;4969447;28;20070;-62
2023/03/11 13:35:23;;;;;;;2.25;1.08;;;;;;;;;;4967330;28;20050;-62
2023/03/11 13:38:30;;;;;;;4.90;2.90;;;;;;;;;;4971227;28;20073;-61
2023/03/11 13:41:02;;;;;;;2.25;1.13;;;;;;;;;;4970145;28;20067;-62
2023/03/11 13:43:32;;;;;;;3.95;1.40;;;;;;;;;;4941607;28;20084;-68
2023/03/11 13:46:11;;;;;;;4.43;1.20;;;;;;;;;;4977885;28;20468;-66
2023/03/11 13:48:47;;;;;;;2.15;1.13;;;;;;;;;;4975899;28;20533;-62
2023/03/11 13:51:19;;;;;;;2.60;1.65;;;;;;;;;;4949934;28;20054;-67
2023/03/11 13:53:54;;;;;;;2.20;1.20;;;;;;;;;;4975582;28;20058;-64
2023/03/11 13:56:31;;;;;;;1.65;1.10;;;;;;;;;;4935152;28;20062;-61
2023/03/11 13:59:31;;;;;;;2.72;1.13;;;;;;;;;;4979380;28;20403;-62
2023/03/11 14:02:01;;;;;;;4.57;1.83;;;;;;;;;;4971292;28;20047;-64
2023/03/11 14:04:34;;;;;;;4.28;1.90;;;;;;;;;;5007743;28;20057;-64
2023/03/11 14:07:19;;;;;;;2.10;1.13;;;;;;;;;;5015329;28;20444;-60
2023/03/11 14:09:49;;;;;;;2.85;1.02;;;;;;;;;;5051156;28;20133;-63
2023/03/11 14:12:19;;;;;;;4.95;3.08;;;;;;;;;;5038906;28;20788;-66
2023/03/11 14:15:00;;;;;;;3.03;1.27;;;;;;;;;;4994662;28;20057;-63
2023/03/11 14:17:30;;;;;;;4.60;1.17;;;;;;;;;;5044055;28;20547;-67
2023/03/11 14:20:17;;;;;;;2.30;1.60;;;;;;;;;;5044322;28;20044;-65
2023/03/11 14:22:50;;;;;;;3.47;1.58;;;;;;;;;;5032331;28;20409;-62
2023/03/11 14:25:29;;;;;;;2.08;1.17;;;;;;;;;;4998023;28;20076;-61
2023/03/11 14:28:04;;;;;;;5.55;3.88;;;;;;;;;;5048005;28;20045;-61
2023/03/11 14:30:34;;;;;;;5.00;1.58;;;;;;;;;;5046029;28;20060;-62
2023/03/11 14:33:20;;;;;;;1.85;1.20;;;;;;;;;;5040940;28;20517;-61
2023/03/11 14:36:00;;;;;;;4.15;1.13;;;;;;;;;;5043534;28;20052;-63
2023/03/11 14:38:32;;;;;;;2.47;1.27;;;;;;;;;;5025567;28;20095;-63
2023/03/11 14:41:06;;;;;;;3.95;1.30;;;;;;;;;;5047077;28;20068;-62
2023/03/11 14:43:43;;;;;;;2.20;1.15;;;;;;;;;;5011249;28;20859;-72
2023/03/11 14:46:20;;;;;;;2.83;1.35;;;;;;;;;;5047878;28;20120;-62
2023/03/11 14:48:53;;;;;;;3.33;1.15;;;;;;;;;;5050708;28;20481;-63
2023/03/11 14:51:30;;;;;;;4.10;1.00;;;;;;;;;;5050967;28;20455;-65
2023/03/11 14:54:30;;;;;;;3.90;1.15;;;;;;;;;;5028069;28;20057;-62
2023/03/11 14:57:14;;;;;;;2.92;1.10;;;;;;;;;;4934687;28;20569;-65
2023/03/11 14:59:47;;;;;;;2.40;1.40;;;;;;;;;;4965329;28;20891;-65
2023/03/11 15:02:43;;;;;;;3.10;1.30;;;;;;;;;;4942396;29;20051;-65
2023/03/11 15:05:44;;;;;;;2.15;1.05;;;;;;;;;;4873101;29;20056;-66
2023/03/11 15:08:18;;;;;;;12.13;7.47;;;;;;;;;;4842434;29;20480;-62
2023/03/11 15:11:11;;;;;;;2.50;1.35;;;;;;;;;;4889478;29;20064;-63
2023/03/11 15:13:46;;;;;;;2.92;1.40;;;;;;;;;;4893144;29;20079;-65
2023/03/11 15:16:35;;;;;;;2.85;1.60;;;;;;;;;;4846355;29;20611;-64
2023/03/11 15:19:26;;;;;;;3.63;1.17;;;;;;;;;;4890737;29;20560;-64
2023/03/11 15:22:01;;;;;;;2.85;1.10;;;;;;;;;;4875029;29;20501;-64
2023/03/11 15:24:32;;;;;;;4.05;1.10;;;;;;;;;;4873598;29;20064;-63
2023/03/11 15:27:06;;;;;;;3.33;1.05;;;;;;;;;;4854473;29;20231;-63
2023/03/11 15:29:36;;;;;;;3.83;1.10;;;;;;;;;;4839817;29;20156;-63
2023/03/11 15:32:25;;;;;;;1.95;1.13;;;;;;;;;;4844210;29;20555;-64